sensor_id;sensor_type;location;lat;lon;timestamp;P1;durP1;ratioP1;P2;durP2;ratioP2
6376;SDS011;3221;48.858;10.128;2024-03-23T00:53:52;15.03;;;4.50;;
6376;SDS011;3221;48.858;10.128;2024-03-23T00:56:18;3.97;;;3.30;;
6376;SDS011;3221;48.858;10.128;2024-03-23T00:58:43;4.07;;;3.40;;
6376;SDS011;3221;48.858;10.128;2024-03-23T01:01:09;7.77;;;3.40;;
6376;SDS011;3221;48.858;10.128;2024-03-23T01:03:35;11.67;;;3.73;;
6376;SDS011;3221;48.858;10.128;2024-03-23T01:06:01;5.40;;;3.37;;
6376;SDS011;3221;48.858;10.128;2024-03-23T01:08:28;5.17;;;3.30;;
6376;SDS011;3221;48.858;10.128;2024-03-23T01:10:55;3.20;;;2.90;;
6376;SDS011;3221;48.858;10.128;2024-03-23T01:13:21;4.43;;;3.00;;
6376;SDS011;3221;48.858;10.128;2024-03-23T01:15:48;3.13;;;2.83;;
6376;SDS011;3221;48.858;10.128;2024-03-23T01:18:15;4.20;;;3.20;;
6376;SDS011;3221;48.858;10.128;2024-03-23T01:20:41;6.20;;;3.50;;
6376;SDS011;3221;48.858;10.128;2024-03-23T01:23:07;17.20;;;4.23;;
6376;SDS011;3221;48.858;10.128;2024-03-23T01:25:33;4.50;;;3.40;;
6376;SDS011;3221;48.858;10.128;2024-03-23T01:27:59;3.83;;;3.20;;
6376;SDS011;3221;48.858;10.128;2024-03-23T01:30:25;4.37;;;3.20;;
6376;SDS011;3221;48.858;10.128;2024-03-23T01:32:51;5.40;;;3.40;;
6376;SDS011;3221;48.858;10.128;2024-03-23T01:35:16;5.43;;;3.23;;
6376;SDS011;3221;48.858;10.128;2024-03-23T01:37:42;3.77;;;3.30;;
6376;SDS011;3221;48.858;10.128;2024-03-23T01:40:08;3.77;;;3.07;;
6376;SDS011;3221;48.858;10.128;2024-03-23T01:42:34;6.03;;;3.17;;
6376;SDS011;3221;48.858;10.128;2024-03-23T01:45:00;4.50;;;3.00;;
6376;SDS011;3221;48.858;10.128;2024-03-23T01:47:26;3.93;;;3.50;;
6376;SDS011;3221;48.858;10.128;2024-03-23T01:49:52;4.53;;;3.90;;
6376;SDS011;3221;48.858;10.128;2024-03-23T01:52:18;4.43;;;3.93;;
6376;SDS011;3221;48.858;10.128;2024-03-23T01:54:44;3.87;;;3.27;;
6376;SDS011;3221;48.858;10.128;2024-03-23T01:57:10;5.00;;;3.50;;
6376;SDS011;3221;48.858;10.128;2024-03-23T01:59:38;7.87;;;5.60;;
6376;SDS011;3221;48.858;10.128;2024-03-23T02:02:05;4.93;;;4.23;;
6376;SDS011;3221;48.858;10.128;2024-03-23T02:04:31;4.67;;;3.60;;
6376;SDS011;3221;48.858;10.128;2024-03-23T02:06:57;4.47;;;4.07;;
6376;SDS011;3221;48.858;10.128;2024-03-23T02:09:23;5.60;;;4.40;;
6376;SDS011;3221;48.858;10.128;2024-03-23T02:11:49;6.23;;;3.97;;
6376;SDS011;3221;48.858;10.128;2024-03-23T02:14:16;4.93;;;3.67;;
6376;SDS011;3221;48.858;10.128;2024-03-23T02:16:42;4.33;;;3.80;;
6376;SDS011;3221;48.858;10.128;2024-03-23T02:19:08;5.03;;;3.77;;
6376;SDS011;3221;48.858;10.128;2024-03-23T02:21:34;4.57;;;3.60;;
6376;SDS011;3221;48.858;10.128;2024-03-23T02:24:00;5.93;;;3.67;;
6376;SDS011;3221;48.858;10.128;2024-03-23T02:26:26;4.87;;;3.40;;
6376;SDS011;3221;48.858;10.128;2024-03-23T02:28:52;4.10;;;3.70;;
6376;SDS011;3221;48.858;10.128;2024-03-23T02:31:18;4.37;;;3.60;;
6376;SDS011;3221;48.858;10.128;2024-03-23T02:33:43;3.57;;;3.23;;
6376;SDS011;3221;48.858;10.128;2024-03-23T02:36:09;3.90;;;3.40;;
6376;SDS011;3221;48.858;10.128;2024-03-23T02:38:35;4.80;;;3.87;;
6376;SDS011;3221;48.858;10.128;2024-03-23T02:41:04;3.63;;;3.17;;
6376;SDS011;3221;48.858;10.128;2024-03-23T02:43:30;4.37;;;3.53;;
6376;SDS011;3221;48.858;10.128;2024-03-23T02:45:56;5.87;;;3.43;;
6376;SDS011;3221;48.858;10.128;2024-03-23T02:48:22;4.53;;;3.17;;
6376;SDS011;3221;48.858;10.128;2024-03-23T02:50:49;6.80;;;3.83;;
6376;SDS011;3221;48.858;10.128;2024-03-23T02:53:16;4.77;;;3.67;;
6376;SDS011;3221;48.858;10.128;2024-03-23T02:55:42;6.20;;;3.73;;
6376;SDS011;3221;48.858;10.128;2024-03-23T02:58:08;4.87;;;3.63;;
6376;SDS011;3221;48.858;10.128;2024-03-23T03:00:34;4.30;;;3.40;;
6376;SDS011;3221;48.858;10.128;2024-03-23T03:03:00;4.00;;;3.60;;
6376;SDS011;3221;48.858;10.128;2024-03-23T03:05:26;5.03;;;3.70;;
6376;SDS011;3221;48.858;10.128;2024-03-23T03:07:52;4.90;;;3.43;;
6376;SDS011;3221;48.858;10.128;2024-03-23T03:10:18;5.00;;;4.03;;
6376;SDS011;3221;48.858;10.128;2024-03-23T03:12:44;3.90;;;3.50;;
6376;SDS011;3221;48.858;10.128;2024-03-23T03:15:10;3.43;;;3.13;;
6376;SDS011;3221;48.858;10.128;2024-03-23T03:17:35;4.27;;;3.37;;
6376;SDS011;3221;48.858;10.128;2024-03-23T03:20:01;3.73;;;3.33;;
6376;SDS011;3221;48.858;10.128;2024-03-23T03:22:30;3.60;;;3.20;;
6376;SDS011;3221;48.858;10.128;2024-03-23T03:24:55;3.63;;;3.33;;
6376;SDS011;3221;48.858;10.128;2024-03-23T03:27:21;3.83;;;3.37;;
6376;SDS011;3221;48.858;10.128;2024-03-23T03:29:48;3.57;;;3.20;;
6376;SDS011;3221;48.858;10.128;2024-03-23T03:32:14;3.90;;;3.43;;
6376;SDS011;3221;48.858;10.128;2024-03-23T03:34:40;8.50;;;4.33;;
6376;SDS011;3221;48.858;10.128;2024-03-23T03:37:06;4.43;;;4.00;;
6376;SDS011;3221;48.858;10.128;2024-03-23T03:39:31;5.13;;;3.83;;
6376;SDS011;3221;48.858;10.128;2024-03-23T03:41:57;4.33;;;3.93;;
6376;SDS011;3221;48.858;10.128;2024-03-23T03:44:23;3.83;;;3.43;;
6376;SDS011;3221;48.858;10.128;2024-03-23T03:46:49;3.93;;;3.60;;
6376;SDS011;3221;48.858;10.128;2024-03-23T03:49:15;4.00;;;3.57;;
6376;SDS011;3221;48.858;10.128;2024-03-23T03:51:41;6.60;;;3.97;;
6376;SDS011;3221;48.858;10.128;2024-03-23T03:54:07;5.40;;;3.50;;
6376;SDS011;3221;48.858;10.128;2024-03-23T03:56:32;6.17;;;3.77;;
6376;SDS011;3221;48.858;10.128;2024-03-23T03:58:58;4.43;;;3.40;;
6376;SDS011;3221;48.858;10.128;2024-03-23T04:01:24;3.97;;;3.33;;
6376;SDS011;3221;48.858;10.128;2024-03-23T04:03:51;7.70;;;3.60;;
6376;SDS011;3221;48.858;10.128;2024-03-23T04:06:20;3.80;;;3.30;;
6376;SDS011;3221;48.858;10.128;2024-03-23T04:08:46;4.60;;;3.37;;
6376;SDS011;3221;48.858;10.128;2024-03-23T04:11:12;4.13;;;3.33;;
6376;SDS011;3221;48.858;10.128;2024-03-23T04:13:38;5.20;;;3.70;;
6376;SDS011;3221;48.858;10.128;2024-03-23T04:16:06;4.87;;;3.50;;
6376;SDS011;3221;48.858;10.128;2024-03-23T04:18:34;3.80;;;3.30;;
6376;SDS011;3221;48.858;10.128;2024-03-23T04:21:00;4.83;;;4.00;;
6376;SDS011;3221;48.858;10.128;2024-03-23T04:23:26;4.57;;;3.80;;
6376;SDS011;3221;48.858;10.128;2024-03-23T04:25:52;5.73;;;4.50;;
6376;SDS011;3221;48.858;10.128;2024-03-23T04:28:18;6.23;;;4.10;;
6376;SDS011;3221;48.858;10.128;2024-03-23T04:30:44;6.70;;;4.20;;
6376;SDS011;3221;48.858;10.128;2024-03-23T04:33:10;4.30;;;3.63;;
6376;SDS011;3221;48.858;10.128;2024-03-23T04:35:36;5.30;;;4.00;;
6376;SDS011;3221;48.858;10.128;2024-03-23T04:38:02;4.87;;;3.70;;
6376;SDS011;3221;48.858;10.128;2024-03-23T04:40:28;4.37;;;3.73;;
6376;SDS011;3221;48.858;10.128;2024-03-23T04:42:54;7.77;;;3.70;;
6376;SDS011;3221;48.858;10.128;2024-03-23T04:45:20;5.37;;;3.87;;
6376;SDS011;3221;48.858;10.128;2024-03-23T04:47:48;3.80;;;3.50;;
6376;SDS011;3221;48.858;10.128;2024-03-23T04:50:14;6.33;;;3.67;;
6376;SDS011;3221;48.858;10.128;2024-03-23T04:52:39;5.00;;;3.63;;
6376;SDS011;3221;48.858;10.128;2024-03-23T04:55:08;4.10;;;3.70;;
6376;SDS011;3221;48.858;10.128;2024-03-23T04:57:34;5.33;;;3.27;;
6376;SDS011;3221;48.858;10.128;2024-03-23T05:00:00;5.10;;;3.27;;
6376;SDS011;3221;48.858;10.128;2024-03-23T05:02:27;4.50;;;3.53;;
6376;SDS011;3221;48.858;10.128;2024-03-23T05:04:53;3.77;;;3.30;;
6376;SDS011;3221;48.858;10.128;2024-03-23T05:07:19;5.70;;;3.83;;
6376;SDS011;3221;48.858;10.128;2024-03-23T05:09:45;5.83;;;3.40;;
6376;SDS011;3221;48.858;10.128;2024-03-23T05:12:10;3.27;;;2.97;;
6376;SDS011;3221;48.858;10.128;2024-03-23T05:14:36;4.50;;;3.00;;
6376;SDS011;3221;48.858;10.128;2024-03-23T05:17:02;4.07;;;3.50;;
6376;SDS011;3221;48.858;10.128;2024-03-23T05:19:29;4.67;;;3.70;;
6376;SDS011;3221;48.858;10.128;2024-03-23T05:21:55;4.30;;;3.33;;
6376;SDS011;3221;48.858;10.128;2024-03-23T05:24:21;5.03;;;3.17;;
6376;SDS011;3221;48.858;10.128;2024-03-23T05:26:47;4.13;;;3.70;;
6376;SDS011;3221;48.858;10.128;2024-03-23T05:29:13;4.07;;;3.70;;
6376;SDS011;3221;48.858;10.128;2024-03-23T05:31:39;4.17;;;3.73;;
6376;SDS011;3221;48.858;10.128;2024-03-23T05:34:07;4.57;;;3.90;;
6376;SDS011;3221;48.858;10.128;2024-03-23T05:36:34;4.63;;;3.23;;
6376;SDS011;3221;48.858;10.128;2024-03-23T05:39:01;5.70;;;4.13;;
6376;SDS011;3221;48.858;10.128;2024-03-23T05:41:27;4.13;;;3.40;;
6376;SDS011;3221;48.858;10.128;2024-03-23T05:43:53;5.43;;;4.00;;
6376;SDS011;3221;48.858;10.128;2024-03-23T05:46:19;5.93;;;4.40;;
6376;SDS011;3221;48.858;10.128;2024-03-23T05:48:45;4.53;;;4.10;;
6376;SDS011;3221;48.858;10.128;2024-03-23T05:51:11;6.63;;;5.03;;
6376;SDS011;3221;48.858;10.128;2024-03-23T05:53:38;7.60;;;5.60;;
6376;SDS011;3221;48.858;10.128;2024-03-23T05:56:04;10.40;;;6.27;;
6376;SDS011;3221;48.858;10.128;2024-03-23T05:58:30;7.70;;;6.37;;
6376;SDS011;3221;48.858;10.128;2024-03-23T06:00:57;8.17;;;7.00;;
6376;SDS011;3221;48.858;10.128;2024-03-23T06:03:24;9.43;;;7.17;;
6376;SDS011;3221;48.858;10.128;2024-03-23T06:05:51;10.83;;;8.63;;
6376;SDS011;3221;48.858;10.128;2024-03-23T06:08:18;12.50;;;9.27;;
6376;SDS011;3221;48.858;10.128;2024-03-23T06:10:45;13.23;;;9.87;;
6376;SDS011;3221;48.858;10.128;2024-03-23T06:13:11;13.30;;;10.17;;
6376;SDS011;3221;48.858;10.128;2024-03-23T06:15:37;11.67;;;10.10;;
6376;SDS011;3221;48.858;10.128;2024-03-23T06:18:04;14.07;;;10.60;;
6376;SDS011;3221;48.858;10.128;2024-03-23T06:20:30;12.83;;;9.77;;
6376;SDS011;3221;48.858;10.128;2024-03-23T06:22:57;14.27;;;10.60;;
6376;SDS011;3221;48.858;10.128;2024-03-23T06:25:23;13.53;;;11.20;;
6376;SDS011;3221;48.858;10.128;2024-03-23T06:27:48;13.83;;;10.57;;
6376;SDS011;3221;48.858;10.128;2024-03-23T06:30:14;13.07;;;10.53;;
6376;SDS011;3221;48.858;10.128;2024-03-23T06:32:41;14.17;;;10.90;;
6376;SDS011;3221;48.858;10.128;2024-03-23T06:35:07;13.20;;;10.70;;
6376;SDS011;3221;48.858;10.128;2024-03-23T06:37:37;12.97;;;10.43;;
6376;SDS011;3221;48.858;10.128;2024-03-23T06:40:04;11.57;;;9.23;;
6376;SDS011;3221;48.858;10.128;2024-03-23T06:42:35;10.53;;;8.77;;
6376;SDS011;3221;48.858;10.128;2024-03-23T06:45:01;12.47;;;9.13;;
6376;SDS011;3221;48.858;10.128;2024-03-23T06:47:28;10.93;;;8.03;;
6376;SDS011;3221;48.858;10.128;2024-03-23T06:49:54;9.83;;;6.97;;
6376;SDS011;3221;48.858;10.128;2024-03-23T06:52:20;9.87;;;7.17;;
6376;SDS011;3221;48.858;10.128;2024-03-23T06:54:46;8.17;;;6.57;;
6376;SDS011;3221;48.858;10.128;2024-03-23T06:57:12;7.07;;;6.20;;
6376;SDS011;3221;48.858;10.128;2024-03-23T06:59:38;8.47;;;6.60;;
6376;SDS011;3221;48.858;10.128;2024-03-23T07:02:04;8.27;;;5.97;;
6376;SDS011;3221;48.858;10.128;2024-03-23T07:04:34;9.57;;;6.80;;
6376;SDS011;3221;48.858;10.128;2024-03-23T07:07:00;6.80;;;5.33;;
6376;SDS011;3221;48.858;10.128;2024-03-23T07:09:29;7.67;;;5.50;;
6376;SDS011;3221;48.858;10.128;2024-03-23T07:11:56;6.53;;;5.13;;
6376;SDS011;3221;48.858;10.128;2024-03-23T07:14:22;6.63;;;5.17;;
6376;SDS011;3221;48.858;10.128;2024-03-23T07:16:49;5.27;;;4.77;;
6376;SDS011;3221;48.858;10.128;2024-03-23T07:19:15;6.47;;;4.83;;
6376;SDS011;3221;48.858;10.128;2024-03-23T07:21:42;6.37;;;4.80;;
6376;SDS011;3221;48.858;10.128;2024-03-23T07:24:08;6.20;;;4.80;;
6376;SDS011;3221;48.858;10.128;2024-03-23T07:26:34;4.93;;;4.40;;
6376;SDS011;3221;48.858;10.128;2024-03-23T07:29:00;6.07;;;4.67;;
6376;SDS011;3221;48.858;10.128;2024-03-23T07:31:27;5.80;;;4.47;;
6376;SDS011;3221;48.858;10.128;2024-03-23T07:33:53;5.73;;;4.50;;
6376;SDS011;3221;48.858;10.128;2024-03-23T07:36:19;6.03;;;4.70;;
6376;SDS011;3221;48.858;10.128;2024-03-23T07:38:45;5.57;;;4.53;;
6376;SDS011;3221;48.858;10.128;2024-03-23T07:41:13;5.90;;;5.17;;
6376;SDS011;3221;48.858;10.128;2024-03-23T07:43:44;6.50;;;4.57;;
6376;SDS011;3221;48.858;10.128;2024-03-23T07:46:11;5.67;;;4.37;;
6376;SDS011;3221;48.858;10.128;2024-03-23T07:48:37;5.70;;;4.03;;
6376;SDS011;3221;48.858;10.128;2024-03-23T07:53:32;4.23;;;3.83;;
6376;SDS011;3221;48.858;10.128;2024-03-23T07:55:59;3.60;;;3.00;;
6376;SDS011;3221;48.858;10.128;2024-03-23T07:58:25;5.73;;;3.37;;
6376;SDS011;3221;48.858;10.128;2024-03-23T08:00:52;6.23;;;3.67;;
6376;SDS011;3221;48.858;10.128;2024-03-23T08:03:19;4.97;;;3.50;;
6376;SDS011;3221;48.858;10.128;2024-03-23T08:05:45;3.33;;;2.87;;
6376;SDS011;3221;48.858;10.128;2024-03-23T08:08:11;2.53;;;2.33;;
6376;SDS011;3221;48.858;10.128;2024-03-23T08:10:37;3.93;;;2.60;;
6376;SDS011;3221;48.858;10.128;2024-03-23T08:13:14;2.93;;;2.40;;
6376;SDS011;3221;48.858;10.128;2024-03-23T08:15:40;3.03;;;2.73;;
6376;SDS011;3221;48.858;10.128;2024-03-23T08:18:06;3.23;;;2.80;;
6376;SDS011;3221;48.858;10.128;2024-03-23T08:20:32;2.90;;;2.70;;
6376;SDS011;3221;48.858;10.128;2024-03-23T08:22:58;2.47;;;2.07;;
6376;SDS011;3221;48.858;10.128;2024-03-23T08:25:24;2.33;;;2.13;;
6376;SDS011;3221;48.858;10.128;2024-03-23T08:27:50;2.53;;;2.23;;
6376;SDS011;3221;48.858;10.128;2024-03-23T08:30:16;2.20;;;2.00;;
6376;SDS011;3221;48.858;10.128;2024-03-23T08:32:42;2.30;;;2.10;;
6376;SDS011;3221;48.858;10.128;2024-03-23T08:35:08;4.13;;;2.20;;
6376;SDS011;3221;48.858;10.128;2024-03-23T08:37:34;12.50;;;2.63;;
6376;SDS011;3221;48.858;10.128;2024-03-23T08:40:00;2.67;;;2.33;;
6376;SDS011;3221;48.858;10.128;2024-03-23T08:42:27;1.97;;;1.87;;
6376;SDS011;3221;48.858;10.128;2024-03-23T08:44:53;2.30;;;2.10;;
6376;SDS011;3221;48.858;10.128;2024-03-23T08:47:19;2.87;;;1.80;;
6376;SDS011;3221;48.858;10.128;2024-03-23T08:49:44;20.03;;;3.30;;
6376;SDS011;3221;48.858;10.128;2024-03-23T08:52:10;2.77;;;1.90;;
6376;SDS011;3221;48.858;10.128;2024-03-23T08:54:36;2.20;;;2.00;;
6376;SDS011;3221;48.858;10.128;2024-03-23T08:57:02;2.40;;;2.20;;
6376;SDS011;3221;48.858;10.128;2024-03-23T08:59:28;2.40;;;2.20;;
6376;SDS011;3221;48.858;10.128;2024-03-23T09:01:54;2.20;;;2.00;;
6376;SDS011;3221;48.858;10.128;2024-03-23T09:04:21;2.20;;;2.00;;
6376;SDS011;3221;48.858;10.128;2024-03-23T09:06:47;2.20;;;1.67;;
6376;SDS011;3221;48.858;10.128;2024-03-23T09:09:13;1.63;;;1.50;;
6376;SDS011;3221;48.858;10.128;2024-03-23T09:11:39;7.23;;;4.30;;
6376;SDS011;3221;48.858;10.128;2024-03-23T09:14:04;9.60;;;5.60;;
6376;SDS011;3221;48.858;10.128;2024-03-23T09:16:30;16.87;;;9.73;;
6376;SDS011;3221;48.858;10.128;2024-03-23T09:18:56;14.83;;;8.97;;
6376;SDS011;3221;48.858;10.128;2024-03-23T09:21:22;15.30;;;8.40;;
6376;SDS011;3221;48.858;10.128;2024-03-23T09:23:48;14.63;;;9.13;;
6376;SDS011;3221;48.858;10.128;2024-03-23T09:26:14;9.63;;;6.43;;
6376;SDS011;3221;48.858;10.128;2024-03-23T09:28:40;6.37;;;4.50;;
6376;SDS011;3221;48.858;10.128;2024-03-23T09:31:07;11.97;;;7.40;;
6376;SDS011;3221;48.858;10.128;2024-03-23T09:33:34;6.33;;;3.73;;
6376;SDS011;3221;48.858;10.128;2024-03-23T09:36:03;5.60;;;3.23;;
6376;SDS011;3221;48.858;10.128;2024-03-23T09:38:30;8.83;;;5.60;;
6376;SDS011;3221;48.858;10.128;2024-03-23T09:40:56;9.60;;;5.60;;
6376;SDS011;3221;48.858;10.128;2024-03-23T09:43:22;15.17;;;11.20;;
6376;SDS011;3221;48.858;10.128;2024-03-23T09:45:49;11.90;;;8.87;;
6376;SDS011;3221;48.858;10.128;2024-03-23T09:48:15;8.40;;;6.27;;
6376;SDS011;3221;48.858;10.128;2024-03-23T09:50:42;6.17;;;4.87;;
6376;SDS011;3221;48.858;10.128;2024-03-23T09:53:09;7.40;;;4.67;;
6376;SDS011;3221;48.858;10.128;2024-03-23T09:55:37;6.20;;;4.23;;
6376;SDS011;3221;48.858;10.128;2024-03-23T09:58:04;5.50;;;4.13;;
6376;SDS011;3221;48.858;10.128;2024-03-23T10:00:31;4.00;;;3.10;;
6376;SDS011;3221;48.858;10.128;2024-03-23T10:03:01;3.60;;;3.30;;
6376;SDS011;3221;48.858;10.128;2024-03-23T10:05:27;5.43;;;3.57;;
6376;SDS011;3221;48.858;10.128;2024-03-23T10:07:54;6.43;;;5.13;;
6376;SDS011;3221;48.858;10.128;2024-03-23T10:10:20;9.10;;;6.23;;
6376;SDS011;3221;48.858;10.128;2024-03-23T10:12:47;5.23;;;4.07;;
6376;SDS011;3221;48.858;10.128;2024-03-23T10:15:24;5.57;;;3.23;;
6376;SDS011;3221;48.858;10.128;2024-03-23T10:17:51;5.80;;;3.80;;
6376;SDS011;3221;48.858;10.128;2024-03-23T10:20:20;5.53;;;3.63;;
6376;SDS011;3221;48.858;10.128;2024-03-23T10:22:50;5.27;;;3.70;;
6376;SDS011;3221;48.858;10.128;2024-03-23T10:25:24;6.03;;;3.73;;
6376;SDS011;3221;48.858;10.128;2024-03-23T10:27:59;6.93;;;4.27;;
6376;SDS011;3221;48.858;10.128;2024-03-23T10:30:26;6.57;;;3.87;;
6376;SDS011;3221;48.858;10.128;2024-03-23T10:33:11;4.80;;;3.40;;
6376;SDS011;3221;48.858;10.128;2024-03-23T10:35:38;5.57;;;3.50;;
6376;SDS011;3221;48.858;10.128;2024-03-23T10:38:05;5.47;;;3.50;;
6376;SDS011;3221;48.858;10.128;2024-03-23T10:40:35;8.00;;;3.77;;
6376;SDS011;3221;48.858;10.128;2024-03-23T10:43:02;7.87;;;3.40;;
6376;SDS011;3221;48.858;10.128;2024-03-23T10:45:29;5.07;;;3.67;;
6376;SDS011;3221;48.858;10.128;2024-03-23T10:47:55;5.13;;;3.80;;
6376;SDS011;3221;48.858;10.128;2024-03-23T10:50:22;6.57;;;3.27;;
6376;SDS011;3221;48.858;10.128;2024-03-23T10:52:48;5.40;;;4.03;;
6376;SDS011;3221;48.858;10.128;2024-03-23T10:55:18;7.60;;;3.67;;
6376;SDS011;3221;48.858;10.128;2024-03-23T10:57:50;7.73;;;3.87;;
6376;SDS011;3221;48.858;10.128;2024-03-23T11:00:18;5.97;;;4.30;;
6376;SDS011;3221;48.858;10.128;2024-03-23T11:02:47;8.70;;;4.40;;
6376;SDS011;3221;48.858;10.128;2024-03-23T11:07:52;7.57;;;4.47;;
6376;SDS011;3221;48.858;10.128;2024-03-23T11:10:28;8.47;;;4.20;;
6376;SDS011;3221;48.858;10.128;2024-03-23T11:12:59;6.43;;;3.77;;
6376;SDS011;3221;48.858;10.128;2024-03-23T11:15:47;5.80;;;3.33;;
6376;SDS011;3221;48.858;10.128;2024-03-23T11:18:19;5.70;;;3.63;;
6376;SDS011;3221;48.858;10.128;2024-03-23T11:20:46;8.97;;;3.93;;
6376;SDS011;3221;48.858;10.128;2024-03-23T11:23:26;6.87;;;4.23;;
6376;SDS011;3221;48.858;10.128;2024-03-23T11:25:53;6.07;;;3.50;;
6376;SDS011;3221;48.858;10.128;2024-03-23T11:28:19;7.00;;;3.50;;
6376;SDS011;3221;48.858;10.128;2024-03-23T11:30:45;4.90;;;3.30;;
6376;SDS011;3221;48.858;10.128;2024-03-23T11:33:11;7.77;;;3.63;;
6376;SDS011;3221;48.858;10.128;2024-03-23T11:35:38;6.70;;;3.37;;
6376;SDS011;3221;48.858;10.128;2024-03-23T11:40:36;5.67;;;3.60;;
6376;SDS011;3221;48.858;10.128;2024-03-23T11:43:03;7.93;;;3.80;;
6376;SDS011;3221;48.858;10.128;2024-03-23T11:45:34;6.20;;;3.70;;
6376;SDS011;3221;48.858;10.128;2024-03-23T11:48:02;5.53;;;3.47;;
6376;SDS011;3221;48.858;10.128;2024-03-23T11:50:29;6.23;;;4.03;;
6376;SDS011;3221;48.858;10.128;2024-03-23T11:55:48;7.10;;;3.67;;
6376;SDS011;3221;48.858;10.128;2024-03-23T11:58:19;11.03;;;7.40;;
6376;SDS011;3221;48.858;10.128;2024-03-23T12:00:52;13.40;;;7.60;;
6376;SDS011;3221;48.858;10.128;2024-03-23T12:03:22;23.60;;;13.23;;
6376;SDS011;3221;48.858;10.128;2024-03-23T12:05:52;17.93;;;10.20;;
6376;SDS011;3221;48.858;10.128;2024-03-23T12:08:23;12.33;;;7.83;;
6376;SDS011;3221;48.858;10.128;2024-03-23T12:10:51;11.23;;;6.80;;
6376;SDS011;3221;48.858;10.128;2024-03-23T12:13:18;9.33;;;5.37;;
6376;SDS011;3221;48.858;10.128;2024-03-23T12:15:46;5.53;;;4.50;;
6376;SDS011;3221;48.858;10.128;2024-03-23T12:18:14;4.00;;;3.50;;
6376;SDS011;3221;48.858;10.128;2024-03-23T12:20:40;6.67;;;4.80;;
6376;SDS011;3221;48.858;10.128;2024-03-23T12:23:07;8.07;;;5.30;;
6376;SDS011;3221;48.858;10.128;2024-03-23T12:25:42;6.00;;;4.60;;
6376;SDS011;3221;48.858;10.128;2024-03-23T12:28:08;6.87;;;4.90;;
6376;SDS011;3221;48.858;10.128;2024-03-23T12:30:40;8.03;;;5.50;;
6376;SDS011;3221;48.858;10.128;2024-03-23T12:33:06;7.20;;;5.13;;
6376;SDS011;3221;48.858;10.128;2024-03-23T12:35:32;6.43;;;4.50;;
6376;SDS011;3221;48.858;10.128;2024-03-23T12:37:59;6.00;;;4.47;;
6376;SDS011;3221;48.858;10.128;2024-03-23T12:40:25;6.97;;;4.27;;
6376;SDS011;3221;48.858;10.128;2024-03-23T12:42:53;8.53;;;4.80;;
6376;SDS011;3221;48.858;10.128;2024-03-23T12:45:19;6.60;;;4.30;;
6376;SDS011;3221;48.858;10.128;2024-03-23T12:47:45;5.77;;;3.97;;
6376;SDS011;3221;48.858;10.128;2024-03-23T12:50:11;7.47;;;4.60;;
6376;SDS011;3221;48.858;10.128;2024-03-23T12:52:37;6.53;;;4.50;;
6376;SDS011;3221;48.858;10.128;2024-03-23T12:55:03;9.10;;;5.20;;
6376;SDS011;3221;48.858;10.128;2024-03-23T12:57:31;8.07;;;5.53;;
6376;SDS011;3221;48.858;10.128;2024-03-23T12:59:57;9.03;;;5.50;;
6376;SDS011;3221;48.858;10.128;2024-03-23T13:02:24;6.53;;;5.23;;
6376;SDS011;3221;48.858;10.128;2024-03-23T13:04:50;8.60;;;4.93;;
6376;SDS011;3221;48.858;10.128;2024-03-23T13:07:19;6.13;;;4.23;;
6376;SDS011;3221;48.858;10.128;2024-03-23T13:09:46;4.83;;;3.73;;
6376;SDS011;3221;48.858;10.128;2024-03-23T13:12:12;9.23;;;5.97;;
6376;SDS011;3221;48.858;10.128;2024-03-23T13:14:38;8.43;;;5.47;;
6376;SDS011;3221;48.858;10.128;2024-03-23T13:17:05;8.87;;;5.67;;
6376;SDS011;3221;48.858;10.128;2024-03-23T13:19:32;8.20;;;5.97;;
6376;SDS011;3221;48.858;10.128;2024-03-23T13:21:58;8.33;;;4.70;;
6376;SDS011;3221;48.858;10.128;2024-03-23T13:24:25;5.50;;;3.83;;
6376;SDS011;3221;48.858;10.128;2024-03-23T13:26:52;7.30;;;4.40;;
6376;SDS011;3221;48.858;10.128;2024-03-23T13:29:19;6.63;;;4.20;;
6376;SDS011;3221;48.858;10.128;2024-03-23T13:31:45;7.93;;;4.90;;
6376;SDS011;3221;48.858;10.128;2024-03-23T13:34:12;7.40;;;4.87;;
6376;SDS011;3221;48.858;10.128;2024-03-23T13:36:42;6.47;;;4.10;;
6376;SDS011;3221;48.858;10.128;2024-03-23T13:39:08;7.77;;;4.47;;
6376;SDS011;3221;48.858;10.128;2024-03-23T13:44:07;7.37;;;4.10;;
6376;SDS011;3221;48.858;10.128;2024-03-23T13:46:33;7.87;;;3.97;;
6376;SDS011;3221;48.858;10.128;2024-03-23T13:48:59;4.70;;;3.53;;
6376;SDS011;3221;48.858;10.128;2024-03-23T13:51:26;6.20;;;3.50;;
6376;SDS011;3221;48.858;10.128;2024-03-23T13:53:53;7.33;;;4.23;;
6376;SDS011;3221;48.858;10.128;2024-03-23T13:56:20;7.33;;;4.33;;
6376;SDS011;3221;48.858;10.128;2024-03-23T13:58:46;5.33;;;3.40;;
6376;SDS011;3221;48.858;10.128;2024-03-23T14:01:13;6.87;;;3.73;;
6376;SDS011;3221;48.858;10.128;2024-03-23T14:03:40;5.60;;;3.67;;
6376;SDS011;3221;48.858;10.128;2024-03-23T14:06:06;6.10;;;3.50;;
6376;SDS011;3221;48.858;10.128;2024-03-23T14:08:36;7.43;;;3.63;;
6376;SDS011;3221;48.858;10.128;2024-03-23T14:11:08;5.80;;;3.50;;
6376;SDS011;3221;48.858;10.128;2024-03-23T14:13:35;5.07;;;3.20;;
6376;SDS011;3221;48.858;10.128;2024-03-23T14:16:01;4.63;;;3.10;;
6376;SDS011;3221;48.858;10.128;2024-03-23T14:18:27;4.97;;;2.83;;
6376;SDS011;3221;48.858;10.128;2024-03-23T14:20:57;3.90;;;2.70;;
6376;SDS011;3221;48.858;10.128;2024-03-23T14:23:27;6.50;;;3.13;;
6376;SDS011;3221;48.858;10.128;2024-03-23T14:25:57;5.40;;;3.07;;
6376;SDS011;3221;48.858;10.128;2024-03-23T14:28:24;6.50;;;2.80;;
6376;SDS011;3221;48.858;10.128;2024-03-23T14:30:50;5.27;;;2.70;;
6376;SDS011;3221;48.858;10.128;2024-03-23T14:33:17;5.77;;;2.73;;
6376;SDS011;3221;48.858;10.128;2024-03-23T14:35:51;5.67;;;3.03;;
6376;SDS011;3221;48.858;10.128;2024-03-23T14:38:20;4.47;;;2.40;;
6376;SDS011;3221;48.858;10.128;2024-03-23T14:40:46;5.47;;;3.60;;
6376;SDS011;3221;48.858;10.128;2024-03-23T14:43:12;6.93;;;3.27;;
6376;SDS011;3221;48.858;10.128;2024-03-23T14:48:38;6.47;;;3.00;;
6376;SDS011;3221;48.858;10.128;2024-03-23T14:51:05;5.97;;;3.13;;
6376;SDS011;3221;48.858;10.128;2024-03-23T14:53:34;8.30;;;3.60;;
6376;SDS011;3221;48.858;10.128;2024-03-23T14:56:01;8.27;;;3.73;;
6376;SDS011;3221;48.858;10.128;2024-03-23T14:58:28;5.03;;;3.67;;
6376;SDS011;3221;48.858;10.128;2024-03-23T15:01:07;8.37;;;3.50;;
6376;SDS011;3221;48.858;10.128;2024-03-23T15:03:35;5.83;;;3.10;;
6376;SDS011;3221;48.858;10.128;2024-03-23T15:06:01;4.50;;;2.10;;
6376;SDS011;3221;48.858;10.128;2024-03-23T15:08:28;4.60;;;2.40;;
6376;SDS011;3221;48.858;10.128;2024-03-23T15:10:54;4.03;;;1.80;;
6376;SDS011;3221;48.858;10.128;2024-03-23T15:13:24;2.90;;;1.83;;
6376;SDS011;3221;48.858;10.128;2024-03-23T15:15:49;2.73;;;1.87;;
6376;SDS011;3221;48.858;10.128;2024-03-23T15:18:17;3.83;;;2.40;;
6376;SDS011;3221;48.858;10.128;2024-03-23T15:20:57;4.20;;;2.60;;
6376;SDS011;3221;48.858;10.128;2024-03-23T15:23:28;3.80;;;2.20;;
6376;SDS011;3221;48.858;10.128;2024-03-23T15:25:57;3.17;;;1.80;;
6376;SDS011;3221;48.858;10.128;2024-03-23T15:28:24;5.03;;;2.43;;
6376;SDS011;3221;48.858;10.128;2024-03-23T15:31:06;3.97;;;2.30;;
6376;SDS011;3221;48.858;10.128;2024-03-23T15:33:34;2.47;;;1.80;;
6376;SDS011;3221;48.858;10.128;2024-03-23T15:36:04;4.47;;;2.00;;
6376;SDS011;3221;48.858;10.128;2024-03-23T15:38:31;2.27;;;1.50;;
6376;SDS011;3221;48.858;10.128;2024-03-23T15:40:57;3.13;;;1.70;;
6376;SDS011;3221;48.858;10.128;2024-03-23T15:43:24;3.10;;;1.80;;
6376;SDS011;3221;48.858;10.128;2024-03-23T15:45:53;2.60;;;1.80;;
6376;SDS011;3221;48.858;10.128;2024-03-23T15:48:20;5.13;;;3.13;;
6376;SDS011;3221;48.858;10.128;2024-03-23T15:50:50;5.07;;;3.20;;
6376;SDS011;3221;48.858;10.128;2024-03-23T15:53:18;3.13;;;2.03;;
6376;SDS011;3221;48.858;10.128;2024-03-23T15:55:44;3.00;;;2.10;;
6376;SDS011;3221;48.858;10.128;2024-03-23T15:58:11;3.77;;;2.13;;
6376;SDS011;3221;48.858;10.128;2024-03-23T16:00:37;2.30;;;1.77;;
6376;SDS011;3221;48.858;10.128;2024-03-23T16:03:03;2.63;;;1.93;;
6376;SDS011;3221;48.858;10.128;2024-03-23T16:05:29;2.37;;;2.10;;
6376;SDS011;3221;48.858;10.128;2024-03-23T16:07:55;3.50;;;2.20;;